Time;durP1;ratioP1;P1;durP2;ratioP2;P2;SDS_P1;SDS_P2;PMS_P1;PMS_P2;Temp;Humidity;BMP_temperature;BMP_pressure;BME280_temperature;BME280_humidity;BME280_pressure;Samples;Min_cycle;Max_cycle;Signal;HPM_P1;HPM_P2
2022/04/24 00:00:29;;;;;;;6.47;5.82;;;;;;;13.06;48.68;100121.50;5057918;28;20025;-62
2022/04/24 00:02:55;;;;;;;7.28;5.28;;;;;;;12.98;49.26;100120.94;5057597;28;20109;-62
2022/04/24 00:05:20;;;;;;;6.60;5.57;;;;;;;12.93;49.32;100125.47;5057956;28;20041;-61
2022/04/24 00:07:45;;;;;;;8.02;5.60;;;;;;;12.90;49.58;100127.28;5057648;28;20033;-61
2022/04/24 00:10:10;;;;;;;5.90;5.30;;;;;;;12.87;49.51;100121.28;5057874;28;20359;-62
2022/04/24 00:12:36;;;;;;;6.30;5.65;;;;;;;12.81;49.90;100122.34;5058109;28;20090;-61
2022/04/24 00:15:01;;;;;;;6.93;6.03;;;;;;;12.83;49.55;100117.88;5058057;28;20032;-62
2022/04/24 00:17:27;;;;;;;6.93;5.95;;;;;;;12.68;49.88;100121.03;5057649;28;20029;-61
2022/04/24 00:19:52;;;;;;;7.10;6.28;;;;;;;12.57;50.41;100115.31;5057480;28;20029;-61
2022/04/24 00:22:17;;;;;;;6.70;6.00;;;;;;;12.48;50.87;100115.59;5057876;28;20032;-61
2022/04/24 00:24:42;;;;;;;6.35;5.65;;;;;;;12.46;50.78;100118.28;5057904;28;20040;-62
2022/04/24 00:27:08;;;;;;;7.90;6.00;;;;;;;12.34;51.37;100110.78;5057873;28;20051;-61
2022/04/24 00:29:34;;;;;;;7.18;5.90;;;;;;;12.27;51.33;100103.19;5057270;28;20025;-61
2022/04/24 00:31:59;;;;;;;7.97;5.95;;;;;;;12.23;51.73;100104.19;5057307;28;20044;-61
2022/04/24 00:34:24;;;;;;;7.63;6.13;;;;;;;12.14;52.30;100098.31;5057162;28;20040;-62
2022/04/24 00:36:50;;;;;;;7.10;5.88;;;;;;;12.10;52.50;100107.22;5057538;28;20044;-62
2022/04/24 00:39:15;;;;;;;6.70;6.07;;;;;;;12.03;52.68;100097.81;5057610;28;20033;-61
2022/04/24 00:41:48;;;;;;;6.95;5.85;;;;;;;11.96;52.87;100111.13;5057486;28;20174;-62
2022/04/24 00:44:15;;;;;;;7.43;5.75;;;;;;;11.90;53.57;100111.34;5057084;28;20437;-61
2022/04/24 00:46:53;;;;;;;7.85;6.40;;;;;;;11.85;53.28;100106.22;5057106;28;20040;-61
2022/04/24 00:49:18;;;;;;;7.32;5.97;;;;;;;11.71;53.49;100087.41;5057051;28;20110;-60
2022/04/24 00:51:43;;;;;;;8.77;6.45;;;;;;;11.74;53.81;100103.91;5057397;28;20524;-62
2022/04/24 00:54:11;;;;;;;6.82;6.13;;;;;;;11.64;54.25;100114.69;5057296;28;20033;-62
2022/04/24 00:56:37;;;;;;;7.18;6.20;;;;;;;11.64;54.22;100102.47;5056812;28;20029;-61
2022/04/24 00:59:06;;;;;;;8.73;6.70;;;;;;;11.62;54.97;100098.16;5056806;28;20021;-61
2022/04/24 01:01:33;;;;;;;7.45;6.50;;;;;;;11.56;54.96;100099.22;5056742;28;20509;-60
2022/04/24 01:04:00;;;;;;;7.25;6.35;;;;;;;11.47;54.97;100104.72;5058509;28;20443;-61
2022/04/24 01:06:27;;;;;;;8.88;6.25;;;;;;;11.43;55.32;100106.56;5077017;28;20036;-61
2022/04/24 01:08:53;;;;;;;9.10;6.65;;;;;;;11.32;55.23;100094.69;5076763;28;20367;-62
2022/04/24 01:11:18;;;;;;;7.75;6.68;;;;;;;11.34;56.02;100111.22;5076657;28;20044;-62
2022/04/24 01:13:44;;;;;;;7.15;6.45;;;;;;;11.23;55.94;100097.56;5076647;28;20028;-61
2022/04/24 01:16:09;;;;;;;7.85;6.72;;;;;;;11.23;56.08;100106.28;5076561;28;20414;-60
2022/04/24 01:18:36;;;;;;;7.80;7.00;;;;;;;11.19;56.54;100109.03;5076879;28;20033;-62
2022/04/24 01:21:09;;;;;;;8.70;6.93;;;;;;;11.16;56.59;100116.06;5076354;28;20059;-61
2022/04/24 01:23:34;;;;;;;6.82;5.97;;;;;;;11.17;57.14;100106.44;5076634;28;20056;-61
2022/04/24 01:26:00;;;;;;;8.75;6.63;;;;;;;11.08;56.79;100107.53;5076429;28;20036;-61
2022/04/24 01:28:25;;;;;;;10.50;6.90;;;;;;;11.11;56.60;100114.47;5076299;28;20119;-62
2022/04/24 01:30:50;;;;;;;9.75;7.22;;;;;;;11.03;57.03;100112.06;5076680;28;20040;-61
2022/04/24 01:33:15;;;;;;;8.73;6.97;;;;;;;10.96;57.35;100114.88;5076027;28;20027;-61
2022/04/24 01:35:41;;;;;;;9.68;7.15;;;;;;;10.94;57.41;100112.28;5076400;28;20089;-61
2022/04/24 01:38:06;;;;;;;9.10;7.25;;;;;;;10.85;57.79;100109.94;5076506;28;20028;-62
2022/04/24 01:40:31;;;;;;;8.80;7.07;;;;;;;10.91;57.78;100114.16;5076092;28;20046;-61
2022/04/24 01:42:56;;;;;;;9.73;7.40;;;;;;;10.84;57.58;100110.84;5076881;28;20115;-61
2022/04/24 01:45:22;;;;;;;7.35;6.55;;;;;;;10.87;57.76;100109.91;5075912;28;20028;-62
2022/04/24 01:47:47;;;;;;;8.25;7.45;;;;;;;10.86;57.34;100111.66;5076062;28;20036;-62
2022/04/24 01:50:12;;;;;;;8.75;7.00;;;;;;;10.84;57.97;100115.22;5076163;28;20063;-60
2022/04/24 01:52:37;;;;;;;10.60;7.18;;;;;;;10.81;57.67;100114.38;5076187;28;20028;-61
2022/04/24 01:55:03;;;;;;;8.63;6.88;;;;;;;10.79;57.77;100110.09;5076602;28;20043;-62
2022/04/24 01:57:28;;;;;;;9.27;6.97;;;;;;;10.72;58.32;100112.03;5075856;28;20031;-60
2022/04/24 01:59:53;;;;;;;8.48;7.00;;;;;;;10.69;58.16;100117.31;5075648;28;20063;-62
2022/04/24 02:02:19;;;;;;;8.52;7.63;;;;;;;10.70;57.58;100111.19;5075866;28;20036;-61
2022/04/24 02:04:44;;;;;;;7.97;7.18;;;;;;;10.70;58.09;100111.19;5075870;28;20082;-61
2022/04/24 02:07:11;;;;;;;9.98;6.97;;;;;;;10.70;58.15;100105.09;5075842;28;20071;-62
2022/04/24 02:09:36;;;;;;;8.85;7.40;;;;;;;10.65;58.00;100110.44;5076025;28;20090;-61
2022/04/24 02:12:02;;;;;;;8.85;7.50;;;;;;;10.56;58.31;100107.22;5075400;28;20036;-61
2022/04/24 02:14:27;;;;;;;8.68;7.28;;;;;;;10.54;58.64;100104.63;5075356;28;20032;-62
2022/04/24 02:16:53;;;;;;;9.15;7.47;;;;;;;10.57;58.53;100111.53;5075407;28;20105;-62
2022/04/24 02:19:18;;;;;;;9.85;7.28;;;;;;;10.48;58.51;100096.94;5075742;28;20031;-62
2022/04/24 02:21:43;;;;;;;9.55;7.30;;;;;;;10.56;58.64;100108.06;5075405;28;20020;-61
2022/04/24 02:24:09;;;;;;;9.25;6.95;;;;;;;10.52;58.72;100114.28;5074406;28;20351;-62
2022/04/24 02:26:34;;;;;;;9.60;7.85;;;;;;;10.47;58.69;100097.81;5075211;28;20040;-60
2022/04/24 02:28:59;;;;;;;8.45;7.53;;;;;;;10.57;58.35;100112.38;5075264;28;20071;-61
2022/04/24 02:31:24;;;;;;;8.25;7.35;;;;;;;10.50;58.60;100102.97;5075476;28;20450;-61
2022/04/24 02:33:50;;;;;;;10.48;7.55;;;;;;;10.48;58.89;100112.63;5074917;28;20045;-61
2022/04/24 02:36:15;;;;;;;10.70;7.50;;;;;;;10.54;59.08;100116.84;5075397;28;20028;-63
2022/04/24 02:38:40;;;;;;;8.88;7.85;;;;;;;10.54;58.72;100107.25;5075168;28;20032;-61
2022/04/24 02:41:06;;;;;;;8.50;7.38;;;;;;;10.56;58.72;100113.31;5075145;28;20048;-62
2022/04/24 02:43:31;;;;;;;11.40;7.93;;;;;;;10.56;58.85;100117.69;5075216;28;20039;-62
2022/04/24 02:45:56;;;;;;;9.63;7.70;;;;;;;10.56;59.05;100117.69;5074990;28;20090;-61
2022/04/24 02:48:22;;;;;;;9.77;8.15;;;;;;;10.52;58.91;100106.44;5075064;28;20082;-61
2022/04/24 02:50:47;;;;;;;10.95;7.88;;;;;;;10.61;58.99;100111.41;5075073;28;20027;-62
2022/04/24 02:53:13;;;;;;;10.73;8.45;;;;;;;10.64;58.78;100113.97;5074065;28;20032;-62
2022/04/24 02:55:38;;;;;;;10.25;7.82;;;;;;;10.62;59.09;100117.50;5074736;28;20037;-62
2022/04/24 02:58:03;;;;;;;10.13;8.20;;;;;;;10.71;59.05;100114.66;5074711;28;20029;-61
2022/04/24 03:00:39;;;;;;;9.45;8.02;;;;;;;10.66;58.52;100113.91;5074968;28;20025;-61
2022/04/24 03:03:06;;;;;;;9.60;8.30;;;;;;;10.69;58.18;100114.72;5074955;28;20108;-62
2022/04/24 03:05:31;;;;;;;11.32;9.20;;;;;;;10.56;58.60;100108.06;5074854;28;20060;-60
2022/04/24 03:07:56;;;;;;;11.43;8.60;;;;;;;10.66;59.01;100116.53;5075007;28;20067;-62
2022/04/24 03:10:22;;;;;;;9.73;8.73;;;;;;;10.71;58.74;100109.44;5074607;28;20044;-62
2022/04/24 03:12:47;;;;;;;9.45;8.25;;;;;;;10.59;58.77;100125.44;5074878;28;20351;-61
2022/04/24 03:15:14;;;;;;;11.63;8.80;;;;;;;10.50;58.84;100118.69;5074689;28;20108;-60
2022/04/24 03:17:40;;;;;;;9.23;8.27;;;;;;;10.50;59.19;100128.28;5074617;28;20419;-61
2022/04/24 03:20:08;;;;;;;11.82;8.95;;;;;;;10.42;59.31;100124.09;5074947;28;20060;-62
2022/04/24 03:22:34;;;;;;;11.10;8.80;;;;;;;10.41;59.51;100124.13;5072607;28;20410;-61
2022/04/24 03:25:00;;;;;;;11.30;9.00;;;;;;;10.32;59.69;100130.44;5074586;28;20111;-61
2022/04/24 03:27:25;;;;;;;10.38;8.93;;;;;;;10.31;60.24;100136.56;5076668;28;20035;-61
2022/04/24 03:29:50;;;;;;;11.18;9.68;;;;;;;10.22;60.36;100118.47;5078502;28;20036;-61
2022/04/24 03:32:16;;;;;;;11.30;9.57;;;;;;;10.23;60.04;100128.03;5078621;28;20056;-61
2022/04/24 03:34:42;;;;;;;11.85;9.57;;;;;;;10.11;60.65;100125.69;5078454;28;20133;-62
2022/04/24 03:37:07;;;;;;;11.40;9.35;;;;;;;10.07;61.03;100132.72;5078535;28;20048;-61
2022/04/24 03:39:33;;;;;;;11.38;9.50;;;;;;;10.01;61.45;100132.03;5078589;28;20020;-61
2022/04/24 03:41:58;;;;;;;9.88;8.80;;;;;;;9.89;61.67;100135.75;5078930;28;20033;-63
2022/04/24 03:44:24;;;;;;;14.30;10.07;;;;;;;9.86;61.51;100128.00;5078567;28;20035;-62
2022/04/24 03:46:49;;;;;;;11.70;9.65;;;;;;;9.80;61.95;100135.97;5078512;28;20028;-61
2022/04/24 03:49:16;;;;;;;14.45;9.88;;;;;;;9.73;62.23;100123.91;5078333;28;20032;-62
2022/04/24 03:51:41;;;;;;;11.13;9.82;;;;;;;9.72;62.59;100133.50;5078426;28;20046;-62
2022/04/24 03:54:06;;;;;;;13.00;9.68;;;;;;;9.69;62.41;100127.50;5077921;28;20044;-62
2022/04/24 03:56:32;;;;;;;11.93;9.77;;;;;;;9.65;62.46;100126.69;5077987;28;20024;-60
2022/04/24 03:58:58;;;;;;;12.35;9.93;;;;;;;9.54;63.73;100127.81;5077783;28;20043;-62
2022/04/24 04:01:23;;;;;;;10.98;9.73;;;;;;;9.55;63.22;100129.53;5077701;28;20029;-61
2022/04/24 04:03:50;;;;;;;12.05;9.93;;;;;;;9.52;63.68;100125.25;5078162;28;20036;-61
2022/04/24 04:06:16;;;;;;;11.55;9.77;;;;;;;9.32;63.77;100111.72;5078002;28;20173;-62
2022/04/24 04:08:41;;;;;;;13.23;10.60;;;;;;;9.39;64.06;100121.13;5077780;28;20115;-61
2022/04/24 04:11:07;;;;;;;11.77;9.57;;;;;;;9.30;64.43;100131.78;5077586;28;20033;-61
2022/04/24 04:13:33;;;;;;;18.55;10.02;;;;;;;9.26;64.92;100125.75;5077750;28;20436;-60
2022/04/24 04:15:58;;;;;;;16.58;10.10;;;;;;;9.21;65.37;100134.56;5078171;28;20097;-62
2022/04/24 04:18:24;;;;;;;11.75;10.50;;;;;;;9.19;65.47;100131.97;5077808;28;20099;-62
2022/04/24 04:20:49;;;;;;;12.23;10.10;;;;;;;9.13;65.58;100132.09;5077873;28;20402;-61
2022/04/24 04:23:14;;;;;;;12.90;10.25;;;;;;;9.18;65.86;100135.47;5077620;28;20029;-61
2022/04/24 04:25:39;;;;;;;13.93;10.52;;;;;;;9.13;65.86;100139.94;5077578;28;20082;-62
2022/04/24 04:28:05;;;;;;;13.02;10.20;;;;;;;9.15;65.97;100137.31;5077637;28;20111;-61
2022/04/24 04:30:30;;;;;;;12.88;10.77;;;;;;;9.14;66.04;100135.59;5077368;28;20348;-61
2022/04/24 04:32:55;;;;;;;11.32;10.13;;;;;;;9.08;66.56;100145.22;5077399;28;20157;-61
2022/04/24 04:35:23;;;;;;;12.60;9.98;;;;;;;9.14;66.63;100144.28;5077437;28;20125;-62
2022/04/24 04:37:49;;;;;;;12.60;10.35;;;;;;;9.14;66.54;100143.41;5077825;28;20028;-61
2022/04/24 04:40:14;;;;;;;12.68;10.02;;;;;;;9.11;66.61;100146.94;5077542;28;20025;-62
2022/04/24 04:42:40;;;;;;;12.48;10.20;;;;;;;9.06;66.92;100146.16;5077360;28;20036;-62
2022/04/24 04:45:06;;;;;;;11.10;9.35;;;;;;;9.05;67.01;100144.44;5077270;28;20439;-62
2022/04/24 04:47:31;;;;;;;12.10;9.85;;;;;;;9.07;66.89;100140.91;5060223;28;20040;-61
2022/04/24 04:49:57;;;;;;;13.52;10.35;;;;;;;9.08;66.99;100144.38;5057074;28;20025;-62
2022/04/24 04:52:22;;;;;;;13.98;9.93;;;;;;;9.05;67.47;100153.13;5057301;28;20113;-62
2022/04/24 04:54:48;;;;;;;11.32;10.02;;;;;;;8.97;67.74;100156.78;5056661;28;20039;-60
2022/04/24 04:57:14;;;;;;;12.88;9.95;;;;;;;9.09;67.59;100161.75;5057000;28;20075;-62
2022/04/24 04:59:40;;;;;;;13.23;10.20;;;;;;;8.99;67.83;100155.84;5056962;28;20029;-61
2022/04/24 05:02:05;;;;;;;12.85;9.85;;;;;;;8.99;68.05;100171.53;5057237;28;20044;-60
2022/04/24 05:04:30;;;;;;;10.57;9.30;;;;;;;8.99;67.89;100162.81;5056665;28;20037;-61
2022/04/24 05:06:56;;;;;;;11.77;9.85;;;;;;;9.01;68.20;100171.47;5057099;28;20031;-61
2022/04/24 05:09:21;;;;;;;14.45;10.57;;;;;;;8.98;68.27;100168.94;5056714;28;20077;-59
2022/04/24 05:11:46;;;;;;;14.30;10.20;;;;;;;9.02;68.74;100174.03;5056593;28;20047;-61
2022/04/24 05:14:12;;;;;;;13.48;10.32;;;;;;;9.11;67.81;100166.94;5056242;28;20033;-62
2022/04/24 05:16:38;;;;;;;12.20;9.90;;;;;;;9.08;67.84;100178.31;5056737;28;20033;-63
2022/04/24 05:19:06;;;;;;;12.65;9.48;;;;;;;9.05;68.25;100175.75;5056189;28;20368;-61
2022/04/24 05:21:31;;;;;;;14.07;9.88;;;;;;;9.10;67.93;100179.13;5056491;28;20034;-63
2022/04/24 05:23:56;;;;;;;11.60;9.68;;;;;;;9.13;67.97;100181.69;5056521;28;20029;-62
2022/04/24 05:26:22;;;;;;;12.18;9.10;;;;;;;9.10;67.91;100183.50;5056343;28;20041;-58
2022/04/24 05:28:47;;;;;;;12.52;9.68;;;;;;;9.21;67.88;100185.00;5056302;28;20044;-60
2022/04/24 05:31:13;;;;;;;13.88;9.38;;;;;;;9.35;67.41;100182.16;5056801;28;20033;-61
2022/04/24 05:33:38;;;;;;;13.00;9.68;;;;;;;9.37;67.05;100189.06;5056120;28;20392;-61
2022/04/24 05:36:06;;;;;;;15.40;9.63;;;;;;;9.26;67.56;100180.59;5056343;28;20414;-62
2022/04/24 05:38:33;;;;;;;13.00;9.50;;;;;;;9.34;67.32;100196.13;5055889;28;20029;-62
2022/04/24 05:40:58;;;;;;;11.57;9.90;;;;;;;9.31;67.22;100189.19;5055693;28;20028;-62
2022/04/24 05:43:23;;;;;;;13.13;9.30;;;;;;;9.31;67.33;100189.19;5056315;28;20021;-61
2022/04/24 05:45:49;;;;;;;12.57;9.35;;;;;;;9.39;67.30;100200.34;5056003;28;20498;-61
2022/04/24 05:48:15;;;;;;;11.65;9.45;;;;;;;9.40;67.24;100196.84;5055831;28;20025;-60
2022/04/24 05:50:41;;;;;;;12.38;9.60;;;;;;;9.52;67.09;100193.16;5055410;28;20036;-62
2022/04/24 05:53:06;;;;;;;13.70;9.35;;;;;;;9.57;66.38;100195.66;5055189;28;20105;-62
2022/04/24 05:55:32;;;;;;;12.88;9.63;;;;;;;9.59;66.64;100202.56;5055573;28;20040;-60
2022/04/24 05:57:57;;;;;;;14.80;9.05;;;;;;;9.62;66.43;100199.03;5056430;28;20102;-63
2022/04/24 06:00:22;;;;;;;12.13;9.07;;;;;;;9.66;66.64;100203.31;5055769;28;20463;-61
2022/04/24 06:02:48;;;;;;;11.95;8.88;;;;;;;9.71;66.25;100201.47;5055707;28;20102;-63
2022/04/24 06:05:13;;;;;;;10.38;9.13;;;;;;;9.84;66.03;100205.56;5055720;28;20039;-60
2022/04/24 06:07:40;;;;;;;11.38;8.85;;;;;;;10.15;65.01;100212.75;5053884;28;20087;-61
2022/04/24 06:10:06;;;;;;;13.38;8.88;;;;;;;10.17;64.60;100211.81;5055146;28;20036;-61
2022/04/24 06:12:42;;;;;;;10.50;8.73;;;;;;;10.10;65.14;100215.47;5055365;28;20115;-62
2022/04/24 06:15:11;;;;;;;12.35;10.05;;;;;;;10.06;64.92;100217.28;5055410;28;20033;-57
2022/04/24 06:17:36;;;;;;;12.65;8.50;;;;;;;10.05;64.40;100209.44;5055464;28;20040;-62
2022/04/24 06:20:02;;;;;;;12.95;9.15;;;;;;;10.04;64.72;100213.81;5054250;28;20094;-60
2022/04/24 06:22:27;;;;;;;9.77;8.20;;;;;;;10.07;64.49;100218.13;5054638;28;20532;-61
2022/04/24 06:24:53;;;;;;;11.98;8.77;;;;;;;10.12;64.84;100208.44;5055042;28;20107;-62
2022/04/24 06:27:18;;;;;;;11.60;8.45;;;;;;;10.18;63.48;100215.31;5054149;28;20115;-61
2022/04/24 06:29:43;;;;;;;10.45;8.50;;;;;;;10.20;63.28;100213.56;5055385;28;20120;-61
2022/04/24 06:32:09;;;;;;;10.35;8.40;;;;;;;10.12;63.54;100201.47;5055200;28;20107;-61
2022/04/24 06:34:34;;;;;;;17.15;8.95;;;;;;;10.36;63.18;100214.94;5055025;28;20041;-61
2022/04/24 06:36:59;;;;;;;9.98;7.45;;;;;;;10.33;62.59;100217.59;5054892;28;20033;-62
2022/04/24 06:39:25;;;;;;;11.32;8.07;;;;;;;10.24;62.46;100205.59;5054991;28;20494;-63
2022/04/24 06:41:50;;;;;;;10.10;8.15;;;;;;;10.38;62.08;100216.63;5054995;28;20029;-61
2022/04/24 06:44:16;;;;;;;12.40;8.38;;;;;;;10.52;62.32;100226.75;5055087;28;20025;-57
2022/04/24 06:46:43;;;;;;;11.15;8.23;;;;;;;10.82;61.65;100223.41;5055215;28;20436;-52
2022/04/24 06:49:09;;;;;;;10.55;8.50;;;;;;;10.83;60.70;100221.66;5054499;28;20468;-61
2022/04/24 06:51:34;;;;;;;11.15;8.23;;;;;;;10.76;60.31;100220.94;5055218;28;20111;-60
2022/04/24 06:53:59;;;;;;;11.50;8.65;;;;;;;10.92;60.15;100231.03;5055055;28;20028;-61
2022/04/24 06:56:24;;;;;;;10.13;8.20;;;;;;;10.94;60.54;100235.31;5059058;28;20086;-61
2022/04/24 06:58:51;;;;;;;13.63;8.15;;;;;;;10.99;59.86;100230.84;5062748;28;20032;-61
2022/04/24 07:01:19;;;;;;;12.20;8.38;;;;;;;10.96;59.62;100220.44;5062302;28;20033;-62
2022/04/24 07:03:44;;;;;;;10.65;7.60;;;;;;;11.00;59.52;100223.84;5063973;28;20089;-63
2022/04/24 07:06:10;;;;;;;11.35;8.02;;;;;;;11.01;59.04;100225.56;5064710;28;20028;-62
2022/04/24 07:08:35;;;;;;;11.07;8.32;;;;;;;11.03;59.56;100227.25;5062714;28;20120;-62
2022/04/24 07:11:00;;;;;;;10.85;8.95;;;;;;;11.17;59.27;100226.91;5064501;28;20032;-56
2022/04/24 07:13:26;;;;;;;10.65;8.38;;;;;;;11.15;59.27;100231.31;5063591;28;20033;-63
2022/04/24 07:15:54;;;;;;;12.57;8.63;;;;;;;11.18;59.48;100228.63;5061266;28;20029;-62
2022/04/24 07:18:20;;;;;;;13.80;8.57;;;;;;;11.22;59.21;100217.19;5061575;28;20029;-61
2022/04/24 07:20:45;;;;;;;12.98;8.63;;;;;;;11.33;59.47;100230.84;5059695;28;20078;-62
2022/04/24 07:23:11;;;;;;;9.90;8.75;;;;;;;11.44;59.61;100222.69;5052537;28;20388;-63
2022/04/24 07:25:43;;;;;;;10.30;7.28;;;;;;;11.61;57.79;100230.09;5052540;28;20037;-62
2022/04/24 07:28:09;;;;;;;;;;;;;;;11.69;57.64;100229.00;5052527;28;20381;-61
2022/04/24 07:30:35;;;;;;;13.20;9.13;;;;;;;11.55;58.42;100232.91;5052766;28;19927;-62
2022/04/24 07:33:00;;;;;;;11.35;8.40;;;;;;;11.63;57.54;100228.28;5051226;28;20033;-61
2022/04/24 07:35:31;;;;;;;10.85;8.90;;;;;;;11.68;57.43;100237.75;5052512;28;20045;-62
2022/04/24 07:37:57;;;;;;;10.80;8.88;;;;;;;11.65;57.39;100235.22;5052406;28;20445;-62
2022/04/24 07:40:26;;;;;;;12.40;8.20;;;;;;;11.70;57.35;100242.97;5052330;28;20040;-63
2022/04/24 07:42:55;;;;;;;11.80;9.05;;;;;;;11.79;57.73;100240.09;5052319;28;20032;-63
2022/04/24 07:45:21;;;;;;;14.50;9.20;;;;;;;11.81;56.73;100235.69;5052530;28;20471;-59
2022/04/24 07:47:47;;;;;;;14.45;9.32;;;;;;;11.93;56.60;100244.97;5052533;28;20115;-62
2022/04/24 07:50:14;;;;;;;10.63;8.57;;;;;;;11.92;56.95;100246.75;5053970;28;20029;-62
2022/04/24 07:52:39;;;;;;;13.35;8.75;;;;;;;11.99;56.56;100234.28;5054285;28;20029;-61
2022/04/24 07:55:05;;;;;;;14.00;9.15;;;;;;;12.04;55.93;100241.13;5054161;28;20107;-62
2022/04/24 07:57:30;;;;;;;10.65;8.70;;;;;;;12.06;55.74;100236.72;5054445;28;20044;-61
2022/04/24 07:59:57;;;;;;;11.95;8.70;;;;;;;12.13;56.58;100242.63;5054154;28;20403;-62
2022/04/24 08:02:22;;;;;;;11.32;8.77;;;;;;;12.19;55.53;100243.31;5053027;28;20040;-57
2022/04/24 08:04:47;;;;;;;11.82;9.30;;;;;;;12.26;55.11;100237.88;5052027;28;20033;-57
2022/04/24 08:07:13;;;;;;;12.70;9.40;;;;;;;12.39;54.99;100242.72;5052640;28;20073;-58
2022/04/24 08:09:38;;;;;;;9.95;8.77;;;;;;;12.38;55.54;100245.38;5052315;28;20455;-57
2022/04/24 08:12:04;;;;;;;11.63;8.80;;;;;;;12.50;55.13;100253.72;5052538;28;20029;-63
2022/04/24 08:14:30;;;;;;;10.52;8.65;;;;;;;12.59;55.20;100249.13;5056512;28;20033;-61
2022/04/24 08:16:55;;;;;;;12.27;9.00;;;;;;;12.68;54.01;100248.81;5057556;28;20124;-61
2022/04/24 08:19:21;;;;;;;11.27;9.02;;;;;;;12.66;54.52;100243.59;5057536;28;20037;-62
2022/04/24 08:21:46;;;;;;;11.82;8.90;;;;;;;12.78;53.37;100256.38;5058082;28;20352;-61
2022/04/24 08:24:11;;;;;;;12.07;9.13;;;;;;;12.90;53.59;100241.97;5057772;28;20067;-58
2022/04/24 08:26:36;;;;;;;12.93;9.32;;;;;;;12.97;53.00;100253.16;5057733;28;20037;-62
2022/04/24 08:29:02;;;;;;;10.93;8.32;;;;;;;13.03;51.97;100245.06;5057977;28;20028;-60
2022/04/24 08:31:27;;;;;;;10.98;9.07;;;;;;;13.04;52.03;100247.63;5057091;28;20085;-61
2022/04/24 08:33:57;;;;;;;11.50;9.23;;;;;;;13.07;52.84;100249.31;5057384;28;20460;-61
2022/04/24 08:36:22;;;;;;;12.98;10.15;;;;;;;13.17;52.48;100253.34;5057389;28;20029;-61
2022/04/24 08:38:47;;;;;;;14.00;9.82;;;;;;;13.24;52.24;100252.25;5056504;28;20135;-62
2022/04/24 08:41:13;;;;;;;12.80;9.52;;;;;;;13.37;52.18;100264.06;5056347;28;20122;-62
2022/04/24 08:43:41;;;;;;;12.05;10.15;;;;;;;13.45;51.27;100245.41;5057441;28;20452;-62
2022/04/24 08:46:07;;;;;;;16.13;10.20;;;;;;;13.52;51.07;100250.38;5056989;28;20398;-62
2022/04/24 08:48:33;;;;;;;13.15;9.82;;;;;;;13.57;51.50;100251.09;5065508;28;20115;-61
2022/04/24 08:51:00;;;;;;;13.02;9.52;;;;;;;13.52;51.44;100228.50;5067024;28;20470;-60
2022/04/24 08:53:30;;;;;;;13.23;9.43;;;;;;;13.72;50.82;100251.47;5065738;28;20403;-62
2022/04/24 08:55:55;;;;;;;14.68;10.10;;;;;;;13.76;50.28;100247.81;5066922;28;20044;-62
2022/04/24 08:58:20;;;;;;;14.10;10.30;;;;;;;14.03;50.43;100253.81;5067648;28;20137;-61
2022/04/24 09:00:46;;;;;;;12.32;10.00;;;;;;;14.28;49.07;100255.50;5071004;28;20044;-60
2022/04/24 09:03:12;;;;;;;13.43;9.88;;;;;;;14.84;48.57;100265.63;5068393;28;20451;-62
2022/04/24 09:05:37;;;;;;;13.13;9.52;;;;;;;15.73;45.11;100254.03;5086454;28;20028;-60
2022/04/24 09:08:07;;;;;;;12.57;9.27;;;;;;;16.19;44.21;100250.16;5076783;28;20052;-58
2022/04/24 09:10:33;;;;;;;10.88;8.85;;;;;;;16.13;43.05;100245.16;5076347;28;20111;-59
2022/04/24 09:12:59;;;;;;;11.15;9.93;;;;;;;16.03;43.52;100250.00;5091214;28;20040;-58
2022/04/24 09:15:25;;;;;;;12.77;9.98;;;;;;;15.92;44.12;100247.00;5097006;28;20036;-60
2022/04/24 09:17:59;;;;;;;11.65;9.55;;;;;;;15.92;44.88;100252.28;5097042;28;20339;-60
2022/04/24 09:20:24;;;;;;;13.45;9.82;;;;;;;15.94;43.80;100251.25;5096669;28;20040;-60
2022/04/24 09:22:50;;;;;;;13.32;9.73;;;;;;;16.05;43.20;100255.22;5097005;28;20418;-62
2022/04/24 09:25:15;;;;;;;13.25;9.90;;;;;;;16.09;44.82;100254.16;5095659;28;20031;-60
2022/04/24 09:27:41;;;;;;;11.20;9.15;;;;;;;16.15;44.02;100244.16;5096476;28;20039;-61
2022/04/24 09:30:14;;;;;;;12.02;10.10;;;;;;;16.17;43.71;100244.94;5096816;28;20374;-61
2022/04/24 09:32:50;;;;;;;13.18;9.98;;;;;;;16.25;43.97;100268.38;5096561;28;20035;-62
2022/04/24 09:35:42;;;;;;;11.48;10.27;;;;;;;16.22;43.77;100252.66;5096548;28;20048;-63
2022/04/24 09:38:17;;;;;;;13.25;10.32;;;;;;;16.31;43.18;100247.81;5093044;28;20051;-63
2022/04/24 09:40:47;;;;;;;12.45;10.88;;;;;;;16.40;42.69;100248.31;5085529;28;20033;-62
2022/04/24 09:43:15;;;;;;;11.70;10.05;;;;;;;16.60;42.37;100250.88;5073034;28;20176;-62
2022/04/24 09:45:47;;;;;;;13.70;9.98;;;;;;;16.68;42.40;100254.03;5081230;28;20034;-64
2022/04/24 09:48:14;;;;;;;12.63;10.50;;;;;;;16.81;42.45;100265.72;5080162;28;20039;-62
2022/04/24 09:50:39;;;;;;;12.50;10.07;;;;;;;16.82;40.35;100258.66;5075537;28;20044;-61
2022/04/24 09:53:05;;;;;;;12.48;9.98;;;;;;;16.81;41.86;100255.16;5066220;28;20029;-63
2022/04/24 09:55:31;;;;;;;13.32;10.98;;;;;;;16.80;41.45;100248.16;5055323;28;20036;-53
2022/04/24 09:57:56;;;;;;;11.98;10.50;;;;;;;17.02;41.27;100248.81;5055859;28;20056;-63
2022/04/24 10:00:23;;;;;;;13.02;11.10;;;;;;;17.09;42.67;100243.22;5058864;28;20114;-63
2022/04/24 10:02:50;;;;;;;17.40;11.30;;;;;;;17.24;43.51;100258.31;5065787;28;20111;-62
2022/04/24 10:05:17;;;;;;;12.80;10.50;;;;;;;17.31;41.60;100254.47;5066244;28;20032;-63
2022/04/24 10:07:43;;;;;;;13.30;10.93;;;;;;;17.39;43.30;100252.25;5064587;28;20036;-62
2022/04/24 10:10:09;;;;;;;12.30;10.77;;;;;;;17.32;41.68;100248.22;5064166;28;20024;-62
2022/04/24 10:12:34;;;;;;;12.85;10.57;;;;;;;17.56;41.63;100249.59;5065290;28;20371;-62
2022/04/24 10:15:03;;;;;;;13.15;10.80;;;;;;;17.76;40.95;100261.84;5064207;28;20025;-63
2022/04/24 10:17:56;;;;;;;18.45;11.27;;;;;;;17.69;40.78;100252.50;5065353;28;20124;-63
2022/04/24 10:20:59;;;;;;;12.93;10.88;;;;;;;17.57;41.63;100250.47;5064406;28;20413;-62
2022/04/24 10:23:36;;;;;;;14.40;10.80;;;;;;;17.47;40.48;100259.81;5067641;28;20024;-61
2022/04/24 10:26:03;;;;;;;15.20;11.68;;;;;;;17.52;40.15;100244.53;5067889;28;20020;-62
2022/04/24 10:28:37;;;;;;;16.50;10.88;;;;;;;17.66;40.83;100255.34;5065969;28;20343;-63
2022/04/24 10:31:04;;;;;;;13.65;10.55;;;;;;;17.69;40.27;100253.34;5065221;28;20024;-63
2022/04/24 10:33:32;;;;;;;11.50;10.23;;;;;;;17.85;39.61;100255.19;5063592;28;20425;-64
2022/04/24 10:36:06;;;;;;;13.13;10.00;;;;;;;17.83;39.67;100262.38;5063526;28;20347;-63
2022/04/24 10:38:33;;;;;;;11.40;9.88;;;;;;;17.98;39.98;100258.94;5065379;28;20062;-59
2022/04/24 10:41:06;;;;;;;14.15;10.52;;;;;;;18.16;39.29;100263.25;5074293;28;20032;-63
2022/04/24 10:43:46;;;;;;;14.80;10.43;;;;;;;18.02;38.42;100261.31;5074654;28;20033;-63
2022/04/24 10:46:26;;;;;;;12.73;10.32;;;;;;;17.96;38.80;100264.31;5075044;28;20028;-62
2022/04/24 10:48:51;;;;;;;10.95;9.38;;;;;;;18.00;38.60;100275.59;5073623;28;20063;-63
2022/04/24 10:51:30;;;;;;;14.00;10.25;;;;;;;17.81;38.89;100251.88;5074524;28;20032;-64
2022/04/24 10:54:14;;;;;;;11.45;9.40;;;;;;;17.90;38.91;100259.31;5074435;28;20036;-63
2022/04/24 10:56:50;;;;;;;11.88;9.15;;;;;;;17.92;40.01;100264.53;5074273;28;20098;-63
2022/04/24 10:59:18;;;;;;;11.82;8.80;;;;;;;18.11;37.57;100265.28;5074616;28;20119;-63
2022/04/24 11:01:54;;;;;;;11.93;7.97;;;;;;;18.05;37.96;100255.84;5074216;28;20447;-63
2022/04/24 11:04:21;;;;;;;12.10;8.85;;;;;;;18.11;38.28;100254.69;5074006;28;20328;-63
2022/04/24 11:06:57;;;;;;;11.18;8.68;;;;;;;18.07;37.34;100261.06;5074166;28;20032;-63
2022/04/24 11:09:24;;;;;;;10.07;8.02;;;;;;;18.19;39.37;100263.03;5074525;28;20362;-63
2022/04/24 11:11:56;;;;;;;11.32;8.77;;;;;;;18.06;37.62;100246.13;5068392;28;20067;-60
2022/04/24 11:14:24;;;;;;;10.38;8.95;;;;;;;18.02;37.89;100263.09;5058740;28;20065;-61
2022/04/24 11:16:52;;;;;;;9.88;8.88;;;;;;;18.03;38.26;100255.06;5068928;28;20060;-64